»·PEaware :: N287JB KAMA-KDEN

N287JB :: KAMA-KDEN

FLIGHT INFORMATION

Flight Status: Arrived
Operator: Privately registered:
United States
More flights under this callsign
Pilot: John L. (16055)
Aircraft: Unknown
(VIPJ)
More flights by this aircraft type
Origin: KAMA Amarillo Intl
United States
Destination: KDEN Denver Intl
United States
More flights between these airports :: More routes between these airports
Route: +PNH QUAIL QUAIL8
File this flight plan on PilotEdge
Remarks: EVIC / G
Altitude:
(Current/Filed)
24,000ft
Speed:
(Current/Filed)
250kts
Departed: 31-Jul-17 04:14 PM
Arrived: 31-Jul-17 05:24 PM
Distance/Time
Traveled:
311nm/1:09
Distance/Time
To Go:
Arrived

Flight Plot

Page will automatically refresh every two minutes.

Flight plan parsing failed; only flown route is shown


Map Options




Map Legend


Flown Route
Filed Route
Departure Airport
Arrival Airport
Navaid (VOR, NDB)
Fix

Horizontal Profiles

Position Reports

Time Latitude Longitude Heading Altitude Ground
Speed
31-Jul-17 15:47 35.216843 -101.708989 225 3610ft 0kts
31-Jul-17 15:48 35.216843 -101.708989 225 3610ft 0kts
31-Jul-17 15:49 35.216843 -101.708989 225 3610ft 0kts
31-Jul-17 15:50 35.216843 -101.708989 225 3610ft 0kts
31-Jul-17 15:51 35.216843 -101.708989 225 3610ft 0kts
31-Jul-17 15:52 35.216843 -101.708989 225 3610ft 0kts
31-Jul-17 15:53 35.216843 -101.708989 225 3610ft 0kts
31-Jul-17 15:54 35.216843 -101.708989 225 3610ft 0kts
31-Jul-17 15:55 35.216843 -101.708989 225 3610ft 0kts
31-Jul-17 15:56 35.216843 -101.708989 225 3610ft 0kts
31-Jul-17 15:57 35.216843 -101.708989 225 3610ft 0kts
31-Jul-17 15:58 35.216843 -101.708989 225 3610ft 0kts
31-Jul-17 15:59 35.216843 -101.708989 225 3610ft 0kts
31-Jul-17 16:00 35.216843 -101.708989 225 3610ft 0kts
31-Jul-17 16:01 35.216843 -101.708989 225 3610ft 0kts
31-Jul-17 16:02 35.216843 -101.708989 225 3610ft 0kts
31-Jul-17 16:03 35.216777 -101.709072 225 3610ft 0kts
31-Jul-17 16:04 35.216849 -101.709357 311 3610ft 3kts
31-Jul-17 16:05 35.218215 -101.710742 357 3610ft 9kts
31-Jul-17 16:06 35.220752 -101.707743 45 3610ft 16kts
31-Jul-17 16:07 35.224690 -101.702785 47 3610ft 24kts
31-Jul-17 16:08 35.229122 -101.698728 319 3610ft 12kts
31-Jul-17 16:09 35.229224 -101.698833 319 3610ft 0kts
31-Jul-17 16:10 35.229224 -101.698833 319 3610ft 0kts
31-Jul-17 16:11 35.229224 -101.698833 319 3610ft 0kts
31-Jul-17 16:12 35.229224 -101.698833 319 3610ft 0kts
31-Jul-17 16:13 35.229224 -101.698833 319 3610ft 0kts
31-Jul-17 16:14 35.229224 -101.698833 319 3610ft 0kts
31-Jul-17 16:15 35.229264 -101.698875 319 3610ft 2kts
31-Jul-17 16:16 35.230133 -101.701108 238 3610ft 13kts
31-Jul-17 16:17 35.210845 -101.721373 211 4362ft 155kts
31-Jul-17 16:18 35.171471 -101.742503 225 4856ft 154kts
31-Jul-17 16:19 35.135680 -101.784040 225 7061ft 196kts
31-Jul-17 16:20 35.116773 -101.835602 311 8922ft 201kts
31-Jul-17 16:21 35.158401 -101.882638 315 10976ft 209kts
31-Jul-17 16:22 35.200167 -101.934323 315 12968ft 225kts
31-Jul-17 16:23 35.245601 -101.988314 315 14952ft 234kts
31-Jul-17 16:24 35.304287 -102.019622 337 16911ft 238kts
31-Jul-17 16:25 35.365029 -102.049411 335 18909ft 239kts
31-Jul-17 16:26 35.426860 -102.080462 335 20896ft 242kts
31-Jul-17 16:27 35.488396 -102.111503 335 22853ft 237kts
31-Jul-17 16:28 35.549016 -102.142189 334 24206ft 254kts
31-Jul-17 16:29 35.622072 -102.179357 335 24174ft 317kts
31-Jul-17 16:30 35.703306 -102.220551 335 24182ft 318kts
31-Jul-17 16:31 35.790759 -102.264947 335 24188ft 342kts
31-Jul-17 16:32 35.876474 -102.308716 335 24182ft 338kts
31-Jul-17 16:33 35.962879 -102.352799 335 24181ft 337kts
31-Jul-17 16:34 36.049266 -102.397161 335 24208ft 338kts
31-Jul-17 16:35 36.134922 -102.441136 335 24209ft 338kts
31-Jul-17 16:36 36.221518 -102.485716 335 24209ft 338kts
31-Jul-17 16:37 36.303794 -102.528181 335 24209ft 338kts
31-Jul-17 16:38 36.390310 -102.572938 335 24208ft 338kts
31-Jul-17 16:39 36.476606 -102.617709 335 24162ft 337kts
31-Jul-17 16:40 36.563060 -102.662631 334 24265ft 337kts
31-Jul-17 16:41 36.649227 -102.707557 334 24210ft 337kts
31-Jul-17 16:42 36.735634 -102.752669 334 24211ft 337kts
31-Jul-17 16:43 36.821936 -102.797852 334 24210ft 337kts
31-Jul-17 16:44 36.906307 -102.842137 334 24210ft 337kts
31-Jul-17 16:45 36.992431 -102.887453 334 24210ft 337kts
31-Jul-17 16:46 37.078634 -102.932923 334 24210ft 337kts
31-Jul-17 16:47 37.164467 -102.978309 334 24211ft 337kts
31-Jul-17 16:48 37.250139 -103.023625 334 24208ft 333kts
31-Jul-17 16:49 37.334693 -103.068704 335 24210ft 332kts
31-Jul-17 16:50 37.418948 -103.113537 335 24210ft 331kts
31-Jul-17 16:51 37.503884 -103.158888 335 24210ft 331kts
31-Jul-17 16:52 37.587044 -103.204540 334 24210ft 329kts
31-Jul-17 16:53 37.670666 -103.248545 335 24236ft 330kts
31-Jul-17 16:54 37.755300 -103.293818 335 24235ft 330kts
31-Jul-17 16:55 37.772624 -103.303154 335 24235ft 330kts
31-Jul-17 16:56 37.856777 -103.348527 335 24236ft 328kts
31-Jul-17 16:57 37.940665 -103.393968 335 24234ft 329kts
31-Jul-17 16:58 38.024942 -103.439615 335 24234ft 330kts
31-Jul-17 16:59 38.108433 -103.485018 335 24154ft 334kts
31-Jul-17 17:00 38.198669 -103.534219 335 24227ft 356kts
31-Jul-17 17:01 38.284262 -103.580648 333 22922ft 350kts
31-Jul-17 17:02 38.373255 -103.629820 334 21989ft 347kts
31-Jul-17 17:03 38.461142 -103.678349 335 21196ft 350kts
31-Jul-17 17:04 38.549650 -103.727140 337 20390ft 343kts
31-Jul-17 17:05 38.635956 -103.774559 338 19636ft 343kts
31-Jul-17 17:06 38.722044 -103.822159 338 19146ft 334kts
31-Jul-17 17:07 38.805639 -103.868421 338 18639ft 326kts
31-Jul-17 17:08 38.887684 -103.914015 337 18131ft 320kts
31-Jul-17 17:09 38.968678 -103.959297 337 17620ft 317kts
31-Jul-17 17:10 39.048963 -104.004243 337 17109ft 315kts
31-Jul-17 17:11 39.125301 -104.047122 337 16982ft 314kts
31-Jul-17 17:12 39.205208 -104.091960 337 16981ft 314kts
31-Jul-17 17:13 39.280948 -104.146328 318 17001ft 313kts
31-Jul-17 17:14 39.345513 -104.222252 319 17025ft 317kts
31-Jul-17 17:15 39.405354 -104.292597 319 16089ft 271kts
31-Jul-17 17:16 39.457756 -104.354772 319 15011ft 247kts
31-Jul-17 17:17 39.508092 -104.414503 320 14016ft 247kts
31-Jul-17 17:18 39.558635 -104.475147 320 12769ft 250kts
31-Jul-17 17:19 39.608578 -104.535166 320 11277ft 244kts
31-Jul-17 17:20 39.653947 -104.590142 320 9918ft 187kts
31-Jul-17 17:21 39.684771 -104.629097 320 8547ft 138kts
31-Jul-17 17:22 39.710760 -104.661009 343 7054ft 125kts
31-Jul-17 17:23 39.740479 -104.661681 5 7029ft 108kts
31-Jul-17 17:24 39.770653 -104.661303 5 6596ft 107kts
31-Jul-17 17:25 39.800344 -104.661092 3 6043ft 105kts
31-Jul-17 17:26 39.828418 -104.660421 2 5455ft 94kts
31-Jul-17 17:27 39.839916 -104.660341 356 5438ft 26kts
31-Jul-17 17:28 39.840090 -104.662899 266 5438ft 14kts
31-Jul-17 17:29 39.839019 -104.665206 270 5438ft 1kts
31-Jul-17 17:30 39.839020 -104.665221 271 5438ft 0kts
31-Jul-17 17:31 39.839020 -104.665221 271 5438ft 0kts
31-Jul-17 17:32 39.839020 -104.665221 271 5438ft 0kts
31-Jul-17 17:33 39.839020 -104.665221 271 5438ft 0kts

Navigation Log

Ident Type
Flight plan parsing failed, navigation log unavailable